createdAt,value
2022-12-01T00:00:29.167Z,85.11
2022-12-01T00:03:13.167Z,84.99
2022-12-01T00:06:02.432Z,84.70
2022-12-01T00:09:07.748Z,85.06
2022-12-01T00:11:51.209Z,85.49
2022-12-01T00:14:34.767Z,86.13
2022-12-01T00:17:18.308Z,85.65
2022-12-01T00:20:02.016Z,85.99
2022-12-01T00:22:47.807Z,86.25
2022-12-01T00:25:32.247Z,85.37
2022-12-01T00:28:15.744Z,85.63
2022-12-01T00:31:00.195Z,85.17
2022-12-01T00:33:43.700Z,85.19
2022-12-01T00:36:27.964Z,85.49
2022-12-01T00:39:11.442Z,85.38
2022-12-01T00:41:54.934Z,84.86
2022-12-01T00:44:38.438Z,85.16
2022-12-01T00:47:21.987Z,85.31
2022-12-01T00:50:05.979Z,84.72
2022-12-01T00:52:49.420Z,84.44
2022-12-01T00:55:33.000Z,83.96
2022-12-01T00:58:16.491Z,83.64
2022-12-01T01:01:02.138Z,84.32
2022-12-01T01:03:45.770Z,85.11
2022-12-01T01:06:29.687Z,85.99
2022-12-01T01:09:14.859Z,85.29
2022-12-01T01:11:58.305Z,85.81
2022-12-01T01:14:41.751Z,85.56
2022-12-01T01:17:25.278Z,85.30
2022-12-01T01:20:09.672Z,85.70
2022-12-01T01:22:53.100Z,85.12
2022-12-01T01:25:36.553Z,85.20
2022-12-01T01:28:20.688Z,85.43
2022-12-01T01:31:13.828Z,85.16
2022-12-01T01:33:58.088Z,85.24
2022-12-01T01:36:41.544Z,85.03
2022-12-01T01:39:25.023Z,85.14
2022-12-01T01:42:14.313Z,86.01
2022-12-01T01:44:59.398Z,85.47
2022-12-01T01:47:43.027Z,85.91
2022-12-01T01:50:29.085Z,85.29
2022-12-01T01:53:15.798Z,84.90
2022-12-01T01:56:01.791Z,85.37
2022-12-01T01:58:45.689Z,84.83
2022-12-01T02:01:29.911Z,84.81
2022-12-01T02:04:15.483Z,85.03
2022-12-01T02:06:59.319Z,85.66
2022-12-01T02:09:42.754Z,86.69
2022-12-01T02:13:16.021Z,86.30
2022-12-01T02:16:50.634Z,86.31
2022-12-01T02:20:12.973Z,85.56
2022-12-01T02:23:33.811Z,84.69
2022-12-01T02:26:47.846Z,86.06
2022-12-01T02:29:56.017Z,85.05
2022-12-01T02:32:47.847Z,85.17
2022-12-01T02:35:51.935Z,85.33
2022-12-01T02:38:50.933Z,86.33
2022-12-01T02:41:51.081Z,86.73
2022-12-01T02:44:43.643Z,86.21
2022-12-01T02:47:27.669Z,85.77
2022-12-01T02:50:13.523Z,86.62
2022-12-01T02:52:58.255Z,86.66
2022-12-01T02:55:51.439Z,86.60
2022-12-01T02:58:34.980Z,85.57
2022-12-01T03:01:59.114Z,85.75
2022-12-01T03:05:09.524Z,86.37
2022-12-01T03:08:27.065Z,85.93
2022-12-01T03:11:26.969Z,86.44
2022-12-01T03:14:42.497Z,85.25
2022-12-01T03:17:59.049Z,84.00
2022-12-01T03:20:56.567Z,84.19
2022-12-01T03:23:48.489Z,85.16
2022-12-01T03:26:36.268Z,85.78
2022-12-01T03:29:43.670Z,86.18
2022-12-01T03:32:41.738Z,86.23
2022-12-01T03:35:49.277Z,86.07
2022-12-01T03:38:36.548Z,86.41
2022-12-01T03:41:28.037Z,86.36
2022-12-01T03:44:25.686Z,85.65
2022-12-01T03:47:20.882Z,85.86
2022-12-01T03:50:10.303Z,85.96
2022-12-01T03:53:23.707Z,86.00
2022-12-01T03:56:09.058Z,85.94
2022-12-01T03:58:58.185Z,86.45
2022-12-01T04:01:41.942Z,85.89
2022-12-01T04:04:25.438Z,86.17
2022-12-01T04:07:13.455Z,85.90
2022-12-01T04:09:57.422Z,86.31
2022-12-01T04:12:40.938Z,85.85
2022-12-01T04:15:26.179Z,85.90
2022-12-01T04:18:09.667Z,85.84
2022-12-01T04:20:53.212Z,85.86
2022-12-01T04:23:55.067Z,85.58
2022-12-01T04:26:38.813Z,84.54
2022-12-01T04:29:22.301Z,84.64
2022-12-01T04:32:06.151Z,84.95
2022-12-01T04:34:49.652Z,85.13
2022-12-01T04:37:33.688Z,84.40
2022-12-01T04:40:18.955Z,84.90
2022-12-01T04:43:02.475Z,85.43
2022-12-01T04:45:46.374Z,85.52
2022-12-01T04:48:29.896Z,85.58
2022-12-01T04:51:13.501Z,85.35
2022-12-01T04:53:57.057Z,85.46
2022-12-01T04:56:40.755Z,85.34
2022-12-01T04:59:24.313Z,85.22
2022-12-01T05:02:08.065Z,84.73
2022-12-01T05:04:51.586Z,85.18
2022-12-01T05:07:35.120Z,86.06
2022-12-01T05:10:19.183Z,86.06
2022-12-01T05:13:05.223Z,85.76
2022-12-01T05:15:49.301Z,86.42
2022-12-01T05:18:33.370Z,86.61
2022-12-01T05:21:18.228Z,86.68
2022-12-01T05:24:01.730Z,85.96
2022-12-01T05:26:45.977Z,85.62
2022-12-01T05:29:29.477Z,85.48
2022-12-01T05:32:13.309Z,85.35
2022-12-01T05:34:56.782Z,85.14
2022-12-01T05:37:40.269Z,85.10
2022-12-01T05:40:23.699Z,85.52
2022-12-01T05:43:07.303Z,85.18
2022-12-01T05:45:50.886Z,85.06
2022-12-01T05:48:34.519Z,85.33
2022-12-01T05:51:19.058Z,85.45
2022-12-01T05:54:02.735Z,85.04
2022-12-01T05:56:46.165Z,85.69
2022-12-01T05:59:29.591Z,85.66
2022-12-01T06:02:13.150Z,85.70
2022-12-01T06:04:56.791Z,85.38
2022-12-01T06:07:40.537Z,85.31
2022-12-01T06:10:24.199Z,85.81
2022-12-01T06:13:07.619Z,86.18
2022-12-01T06:16:03.151Z,85.79
2022-12-01T06:18:46.615Z,85.78
2022-12-01T06:21:30.101Z,85.98
2022-12-01T06:24:13.513Z,86.46
2022-12-01T06:26:57.254Z,85.70
2022-12-01T06:29:42.385Z,86.31
2022-12-01T06:32:25.966Z,86.37
2022-12-01T06:35:09.679Z,86.39
2022-12-01T06:37:54.552Z,86.25
2022-12-01T06:40:38.008Z,85.46
2022-12-01T06:43:21.499Z,85.99
2022-12-01T06:46:05.788Z,85.97
2022-12-01T06:48:49.294Z,85.68
2022-12-01T06:51:34.361Z,84.92
2022-12-01T06:54:18.116Z,85.44
2022-12-01T06:57:01.664Z,85.25
2022-12-01T06:59:45.343Z,85.64
2022-12-01T07:02:29.047Z,85.49
2022-12-01T07:05:12.567Z,85.02
2022-12-01T07:07:59.430Z,84.81
2022-12-01T07:10:43.423Z,85.12
2022-12-01T07:13:32.807Z,84.88
2022-12-01T07:16:17.116Z,84.80
2022-12-01T07:19:00.536Z,85.07
2022-12-01T07:21:43.997Z,85.48
2022-12-01T07:24:27.414Z,85.50
2022-12-01T07:27:10.847Z,85.53
2022-12-01T07:29:54.332Z,85.47
2022-12-01T07:32:37.755Z,85.50
2022-12-01T07:35:21.908Z,86.16
2022-12-01T07:38:05.471Z,85.81
2022-12-01T07:40:49.112Z,85.14
2022-12-01T07:43:33.502Z,84.49
2022-12-01T07:46:27.138Z,83.78
2022-12-01T07:49:14.816Z,83.90
2022-12-01T07:51:58.232Z,84.06
2022-12-01T07:54:41.700Z,83.35
2022-12-01T07:57:27.942Z,83.51
2022-12-01T08:00:12.291Z,83.82
2022-12-01T08:02:55.971Z,83.55
2022-12-01T08:05:39.555Z,83.28
2022-12-01T08:08:23.182Z,83.71
2022-12-01T08:11:13.578Z,84.07
2022-12-01T08:13:57.322Z,84.84
2022-12-01T08:16:40.931Z,84.46
2022-12-01T08:19:25.910Z,83.54
2022-12-01T08:22:09.408Z,83.33
2022-12-01T08:24:52.914Z,83.52
2022-12-01T08:27:36.467Z,83.45
2022-12-01T08:30:20.195Z,83.04
2022-12-01T08:33:03.675Z,83.86
2022-12-01T08:35:47.129Z,83.18
2022-12-01T08:38:30.902Z,83.64
2022-12-01T08:41:15.258Z,83.53
2022-12-01T08:44:00.106Z,82.74
2022-12-01T08:46:44.333Z,81.91
2022-12-01T08:49:27.932Z,82.29
2022-12-01T08:52:11.394Z,82.86
2022-12-01T08:54:56.797Z,83.22
2022-12-01T08:57:40.494Z,83.36
2022-12-01T09:00:24.001Z,82.50
2022-12-01T09:03:07.457Z,82.74
2022-12-01T09:05:50.972Z,82.40
2022-12-01T09:08:35.923Z,82.74
2022-12-01T09:11:19.563Z,82.33
2022-12-01T09:14:03.366Z,83.19
2022-12-01T09:16:49.989Z,82.99
2022-12-01T09:19:34.200Z,83.08
2022-12-01T09:22:17.797Z,82.64
2022-12-01T09:25:02.463Z,82.71
2022-12-01T09:27:46.552Z,82.56
2022-12-01T09:30:30.042Z,82.80
2022-12-01T09:33:13.752Z,82.30
2022-12-01T09:36:02.086Z,82.53
2022-12-01T09:42:38.688Z,82.47
2022-12-01T09:45:36.795Z,82.43
2022-12-01T09:48:45.073Z,82.72
2022-12-01T09:51:30.027Z,83.05
2022-12-01T09:54:15.102Z,82.75
2022-12-01T10:00:44.014Z,82.20
2022-12-01T10:03:46.497Z,82.16
2022-12-01T10:06:42.620Z,82.52
2022-12-01T10:09:59.676Z,82.62
2022-12-01T10:12:47.015Z,82.70
2022-12-01T10:16:00.003Z,82.51
2022-12-01T10:19:35.526Z,82.40
2022-12-01T10:22:53.008Z,82.46
2022-12-01T10:26:14.759Z,82.54
2022-12-01T10:29:11.277Z,82.64
2022-12-01T10:32:03.217Z,82.01
2022-12-01T10:34:48.432Z,82.42
2022-12-01T10:37:32.368Z,82.12
2022-12-01T10:40:17.240Z,80.78
2022-12-01T10:43:02.203Z,81.76
2022-12-01T10:45:46.071Z,82.21
2022-12-01T10:48:29.618Z,81.93
2022-12-01T10:51:19.502Z,82.03
2022-12-01T10:54:11.733Z,82.17
2022-12-01T10:56:57.446Z,81.29
2022-12-01T11:00:05.860Z,80.67
2022-12-01T11:02:49.942Z,81.04
2022-12-01T11:05:42.200Z,80.94
2022-12-01T11:08:59.866Z,80.15
2022-12-01T11:11:43.512Z,80.27
2022-12-01T11:14:51.946Z,80.43
2022-12-01T11:17:41.511Z,80.31
2022-12-01T11:20:36.471Z,81.03
2022-12-01T11:23:21.032Z,81.72
2022-12-01T11:26:24.874Z,80.89
2022-12-01T11:29:32.470Z,81.17
2022-12-01T11:32:30.837Z,80.09
2022-12-01T11:35:18.287Z,80.74
2022-12-01T11:38:28.862Z,80.84
2022-12-01T11:41:32.975Z,81.08
2022-12-01T11:44:51.670Z,80.02
2022-12-01T11:47:27.530Z,80.01
2022-12-01T11:50:26.627Z,79.42
2022-12-01T11:53:41.730Z,79.86
2022-12-01T11:56:30.172Z,79.52
2022-12-01T11:59:26.866Z,79.28
2022-12-01T12:02:38.031Z,79.80
2022-12-01T12:06:05.965Z,79.76
2022-12-01T12:09:10.970Z,80.12
2022-12-01T12:12:04.222Z,79.95
2022-12-01T12:14:50.351Z,79.18
2022-12-01T12:18:16.496Z,79.13
2022-12-01T12:21:44.710Z,79.39
2022-12-01T12:25:04.328Z,80.44
2022-12-01T12:28:34.517Z,80.24
2022-12-01T12:31:20.741Z,79.86
2022-12-01T12:34:40.403Z,80.46
2022-12-01T12:37:48.764Z,80.64
2022-12-01T12:41:17.626Z,80.63
2022-12-01T12:44:38.241Z,80.89
2022-12-01T12:47:42.967Z,80.59
2022-12-01T12:50:41.020Z,80.24
2022-12-01T12:53:35.044Z,79.99
2022-12-01T12:56:24.402Z,79.41
2022-12-01T12:59:37.225Z,79.01
2022-12-01T13:02:43.282Z,79.84
2022-12-01T13:05:52.923Z,80.50
2022-12-01T13:09:21.683Z,80.39
2022-12-01T13:12:15.914Z,80.43
2022-12-01T13:15:17.174Z,80.41
2022-12-01T13:18:24.349Z,80.28
2022-12-01T13:21:20.258Z,79.62
2022-12-01T13:24:06.357Z,79.50
2022-12-01T13:27:17.589Z,79.34
2022-12-01T13:30:01.833Z,78.94
2022-12-01T13:32:47.203Z,79.42
2022-12-01T13:35:38.461Z,78.67
2022-12-01T13:38:34.338Z,78.32
2022-12-01T13:41:38.561Z,77.86
2022-12-01T13:44:44.109Z,77.97
2022-12-01T13:47:54.391Z,77.80
2022-12-01T13:50:43.924Z,77.74
2022-12-01T13:53:38.450Z,77.62
2022-12-01T13:56:21.753Z,77.95
2022-12-01T13:59:43.442Z,77.36
2022-12-01T14:02:33.636Z,76.97
2022-12-01T14:05:23.330Z,78.06
2022-12-01T14:08:27.658Z,77.16
2022-12-01T14:11:28.923Z,77.32
2022-12-01T14:14:25.947Z,78.06
2022-12-01T14:17:31.239Z,78.11
2022-12-01T14:20:15.400Z,77.93
2022-12-01T14:23:15.262Z,77.79
2022-12-01T14:26:15.747Z,78.51
2022-12-01T14:29:02.280Z,78.71
2022-12-01T14:31:51.444Z,78.64
2022-12-01T14:34:37.892Z,78.42
2022-12-01T14:37:27.421Z,77.99
2022-12-01T14:40:22.794Z,77.44
2022-12-01T14:43:30.798Z,77.63
2022-12-01T14:46:23.043Z,76.52
2022-12-01T14:49:27.479Z,77.27
2022-12-01T14:52:26.393Z,77.69
2022-12-01T14:55:22.019Z,78.86
2022-12-01T14:58:28.074Z,79.15
2022-12-01T15:01:14.302Z,78.42
2022-12-01T15:04:02.712Z,78.08
2022-12-01T15:06:47.232Z,77.33
2022-12-01T15:09:34.889Z,77.38
2022-12-01T15:12:28.398Z,76.54
2022-12-01T15:15:25.994Z,77.13
2022-12-01T15:18:32.694Z,77.66
2022-12-01T15:21:25.775Z,77.90
2022-12-01T15:24:28.633Z,78.22
2022-12-01T15:27:29.198Z,77.95
2022-12-01T15:30:16.553Z,77.29
2022-12-01T15:33:01.501Z,78.62
2022-12-01T15:35:47.225Z,78.62
2022-12-01T15:38:35.735Z,79.29
2022-12-01T15:41:30.568Z,79.55
2022-12-01T15:44:36.630Z,81.97
2022-12-01T15:47:46.514Z,80.48
2022-12-01T15:50:42.763Z,80.34
2022-12-01T15:53:34.459Z,79.20
2022-12-01T15:56:26.073Z,79.30
2022-12-01T15:59:12.701Z,79.13
2022-12-01T16:01:57.339Z,79.21
2022-12-01T16:04:40.949Z,79.42
2022-12-01T16:08:10.835Z,81.19
2022-12-01T16:10:39.427Z,81.36
2022-12-01T16:13:43.870Z,80.23
2022-12-01T16:16:47.153Z,79.36
2022-12-01T16:19:33.944Z,80.40
2022-12-01T16:22:22.747Z,80.71
2022-12-01T16:25:06.686Z,81.86
2022-12-01T16:27:54.322Z,82.01
2022-12-01T16:30:40.166Z,80.80
2022-12-01T16:33:29.196Z,81.24
2022-12-01T16:36:14.551Z,81.88
2022-12-01T16:38:58.058Z,81.55
2022-12-01T16:41:44.859Z,81.84
2022-12-01T16:44:29.312Z,82.04
2022-12-01T16:47:23.544Z,82.25
2022-12-01T16:50:12.662Z,81.19
2022-12-01T16:52:56.339Z,82.01
2022-12-01T16:55:59.037Z,82.11
2022-12-01T16:58:42.509Z,83.40
2022-12-01T17:01:27.225Z,83.73
2022-12-01T17:04:10.729Z,83.69
2022-12-01T17:06:54.277Z,83.59
2022-12-01T17:09:37.825Z,82.86
2022-12-01T17:12:25.324Z,82.59
2022-12-01T17:15:10.443Z,82.75
2022-12-01T17:17:54.060Z,82.75
2022-12-01T17:20:37.903Z,83.24
2022-12-01T17:23:21.643Z,83.49
2022-12-01T17:26:12.968Z,82.94
2022-12-01T17:28:56.668Z,83.34
2022-12-01T17:31:40.193Z,83.72
2022-12-01T17:34:23.785Z,82.88
2022-12-01T17:37:09.573Z,84.54
2022-12-01T17:39:53.051Z,83.69
2022-12-01T17:42:36.528Z,83.01
2022-12-01T17:45:20.025Z,82.08
2022-12-01T17:48:03.579Z,82.29
2022-12-01T17:50:47.033Z,82.20
2022-12-01T17:53:30.637Z,83.09
2022-12-01T17:56:16.766Z,82.68
2022-12-01T17:59:00.618Z,82.64
2022-12-01T18:01:44.256Z,82.56
2022-12-01T18:04:27.758Z,83.51
2022-12-01T18:07:11.251Z,83.24
2022-12-01T18:09:55.149Z,82.20
2022-12-01T18:12:38.735Z,82.18
2022-12-01T18:15:22.243Z,82.57
2022-12-01T18:18:05.698Z,82.29
2022-12-01T18:20:49.166Z,82.10
2022-12-01T18:23:32.728Z,82.56
2022-12-01T18:26:16.558Z,82.41
2022-12-01T18:29:06.378Z,82.92
2022-12-01T18:31:49.891Z,82.60
2022-12-01T18:34:34.030Z,82.55
2022-12-01T18:37:17.533Z,82.77
2022-12-01T18:40:00.964Z,82.18
2022-12-01T18:42:44.745Z,81.05
2022-12-01T18:45:28.141Z,82.80
2022-12-01T18:48:11.563Z,82.63
2022-12-01T18:50:59.286Z,82.82
2022-12-01T18:53:45.474Z,83.55
2022-12-01T18:56:30.062Z,82.89
2022-12-01T18:59:16.910Z,82.71
2022-12-01T19:02:01.123Z,83.77
2022-12-01T19:04:44.633Z,83.48
2022-12-01T19:07:30.099Z,85.15
2022-12-01T19:10:15.252Z,85.27
2022-12-01T19:12:58.695Z,84.19
2022-12-01T19:15:42.312Z,83.41
2022-12-01T19:18:25.763Z,83.37
2022-12-01T19:21:13.504Z,82.51
2022-12-01T19:23:57.025Z,83.00
2022-12-01T19:26:40.561Z,84.12
2022-12-01T19:29:24.201Z,83.11
2022-12-01T19:32:07.688Z,82.83
2022-12-01T19:34:52.350Z,82.84
2022-12-01T19:37:36.037Z,82.31
2022-12-01T19:40:19.486Z,82.65
2022-12-01T19:43:03.315Z,82.20
2022-12-01T19:45:46.823Z,82.63
2022-12-01T19:48:30.278Z,81.76
2022-12-01T19:51:37.007Z,82.48
2022-12-01T19:54:22.062Z,83.33
2022-12-01T19:57:06.369Z,81.55
2022-12-01T19:59:49.903Z,82.67
2022-12-01T20:02:33.390Z,83.02
2022-12-01T20:05:17.248Z,81.76
2022-12-01T20:08:02.790Z,81.66
2022-12-01T20:10:49.292Z,82.02
2022-12-01T20:13:39.107Z,81.34
2022-12-01T20:16:26.204Z,82.44
2022-12-01T20:19:10.970Z,83.62
2022-12-01T20:21:54.437Z,84.16
2022-12-01T20:24:41.180Z,84.29
2022-12-01T20:27:24.741Z,83.25
2022-12-01T20:30:09.406Z,83.14
2022-12-01T20:32:54.288Z,81.96
2022-12-01T20:35:37.753Z,81.09
2022-12-01T20:38:27.045Z,81.34
2022-12-01T20:41:12.074Z,83.04
2022-12-01T20:43:55.769Z,84.66
2022-12-01T20:46:41.146Z,83.54
2022-12-01T20:49:24.678Z,83.07
2022-12-01T20:52:08.433Z,82.29
2022-12-01T20:54:52.192Z,81.33
2022-12-01T20:57:35.951Z,80.78
2022-12-01T21:00:19.769Z,80.99
2022-12-01T21:03:03.430Z,80.74
2022-12-01T21:05:46.945Z,80.95
2022-12-01T21:08:30.415Z,81.82
2022-12-01T21:11:51.402Z,80.85
2022-12-01T21:14:43.267Z,80.89
2022-12-01T21:18:24.166Z,81.61
2022-12-01T21:21:25.533Z,83.30
2022-12-01T21:24:16.271Z,82.28
2022-12-01T21:27:08.586Z,81.48
2022-12-01T21:29:51.994Z,80.48
2022-12-01T21:32:41.151Z,81.57
2022-12-01T21:35:27.160Z,81.46
2022-12-01T21:38:17.741Z,81.73
2022-12-01T21:41:17.317Z,82.05
2022-12-01T21:44:12.871Z,82.30
2022-12-01T21:46:59.278Z,82.33
2022-12-01T21:49:45.150Z,81.58
2022-12-01T21:52:39.187Z,81.87
2022-12-01T21:55:22.481Z,82.07
2022-12-01T21:58:30.687Z,80.90
2022-12-01T22:01:34.965Z,80.90
2022-12-01T22:04:29.519Z,81.73
2022-12-01T22:07:15.495Z,80.72
2022-12-01T22:09:59.259Z,81.24
2022-12-01T22:12:43.045Z,80.17
2022-12-01T22:15:41.449Z,80.87
2022-12-01T22:18:36.506Z,82.56
2022-12-01T22:21:22.897Z,82.06
2022-12-01T22:24:09.158Z,82.44
2022-12-01T22:27:28.043Z,82.62
2022-12-01T22:30:18.340Z,83.35
2022-12-01T22:33:06.057Z,83.76
2022-12-01T22:35:52.698Z,84.13
2022-12-01T22:38:39.715Z,84.02
2022-12-01T22:41:23.591Z,83.38
2022-12-01T22:44:12.437Z,84.74
2022-12-01T22:47:02.101Z,83.86
2022-12-01T22:49:45.580Z,82.94
2022-12-01T22:52:30.442Z,83.19
2022-12-01T22:55:15.560Z,82.65
2022-12-01T22:57:59.816Z,82.97
2022-12-01T23:00:43.790Z,82.48
2022-12-01T23:03:27.915Z,85.77
2022-12-01T23:06:58.862Z,85.60
2022-12-01T23:09:44.490Z,83.33
2022-12-01T23:12:32.391Z,82.91
2022-12-01T23:15:37.519Z,82.85
2022-12-01T23:18:39.321Z,83.32
2022-12-01T23:21:23.065Z,82.08
2022-12-01T23:24:08.650Z,83.41
2022-12-01T23:26:52.530Z,82.45
2022-12-01T23:29:37.352Z,82.95
2022-12-01T23:32:20.859Z,83.16
2022-12-01T23:35:22.759Z,82.76
2022-12-01T23:38:15.086Z,83.42
2022-12-01T23:41:04.342Z,81.36
2022-12-01T23:43:47.759Z,82.78
2022-12-01T23:46:32.906Z,82.74
2022-12-01T23:49:25.327Z,82.95
2022-12-01T23:52:16.583Z,82.23
2022-12-01T23:55:01.219Z,82.88
2022-12-01T23:57:44.672Z,84.03
